sensor_id;sensor_type;location;lat;lon;timestamp;P1;durP1;ratioP1;P2;durP2;ratioP2
22308;SDS011;11322;50.858;-1.778;2023-11-21T00:00:34;3.35;;;0.8;;
22308;SDS011;11322;50.858;-1.778;2023-11-21T00:05:34;0.6;;;0.6;;
22308;SDS011;11322;50.858;-1.778;2023-11-21T00:10:34;0.35;;;0.3;;
22308;SDS011;11322;50.858;-1.778;2023-11-21T00:15:34;1.2;;;0.5;;
22308;SDS011;11322;50.858;-1.778;2023-11-21T00:20:34;1.6;;;0.7;;
22308;SDS011;11322;50.858;-1.778;2023-11-21T00:25:34;0.5;;;0.5;;
22308;SDS011;11322;50.858;-1.778;2023-11-21T00:30:34;0.1;;;0.1;;
22308;SDS011;11322;50.858;-1.778;2023-11-21T00:35:34;2.5;;;0.7;;
22308;SDS011;11322;50.858;-1.778;2023-11-21T00:40:34;4.4;;;1.1;;
22308;SDS011;11322;50.858;-1.778;2023-11-21T00:45:34;0.4;;;0.4;;
22308;SDS011;11322;50.858;-1.778;2023-11-21T00:50:34;3.0;;;0.95;;
22308;SDS011;11322;50.858;-1.778;2023-11-21T00:55:34;1.75;;;0.65;;
22308;SDS011;11322;50.858;-1.778;2023-11-21T01:00:34;0.6;;;0.6;;
22308;SDS011;11322;50.858;-1.778;2023-11-21T01:05:34;0.8;;;0.8;;
22308;SDS011;11322;50.858;-1.778;2023-11-21T01:10:34;0.5;;;0.5;;
22308;SDS011;11322;50.858;-1.778;2023-11-21T01:15:34;0.45;;;0.25;;
22308;SDS011;11322;50.858;-1.778;2023-11-21T01:20:34;0.5;;;0.5;;
22308;SDS011;11322;50.858;-1.778;2023-11-21T01:25:34;0.6;;;0.6;;
22308;SDS011;11322;50.858;-1.778;2023-11-21T01:30:34;0.5;;;0.5;;
22308;SDS011;11322;50.858;-1.778;2023-11-21T01:35:34;10.6;;;0.8;;
22308;SDS011;11322;50.858;-1.778;2023-11-21T01:40:34;0.2;;;0.2;;
22308;SDS011;11322;50.858;-1.778;2023-11-21T01:45:34;0.3;;;0.3;;
22308;SDS011;11322;50.858;-1.778;2023-11-21T01:50:34;0.8;;;0.45;;
22308;SDS011;11322;50.858;-1.778;2023-11-21T01:55:34;0.8;;;0.5;;
22308;SDS011;11322;50.858;-1.778;2023-11-21T02:00:34;3.7;;;0.7;;
22308;SDS011;11322;50.858;-1.778;2023-11-21T02:05:34;1.15;;;0.75;;
22308;SDS011;11322;50.858;-1.778;2023-11-21T02:10:34;4.95;;;0.75;;
22308;SDS011;11322;50.858;-1.778;2023-11-21T02:15:34;0.9;;;0.55;;
22308;SDS011;11322;50.858;-1.778;2023-11-21T02:20:34;5.45;;;0.85;;
22308;SDS011;11322;50.858;-1.778;2023-11-21T02:25:34;0.6;;;0.6;;
22308;SDS011;11322;50.858;-1.778;2023-11-21T02:30:34;5.35;;;0.85;;
22308;SDS011;11322;50.858;-1.778;2023-11-21T02:35:34;0.8;;;0.5;;
22308;SDS011;11322;50.858;-1.778;2023-11-21T02:40:34;0.5;;;0.4;;
22308;SDS011;11322;50.858;-1.778;2023-11-21T02:45:34;5.9;;;1.0;;
22308;SDS011;11322;50.858;-1.778;2023-11-21T02:50:34;1.8;;;0.95;;
22308;SDS011;11322;50.858;-1.778;2023-11-21T02:55:34;0.4;;;0.4;;
22308;SDS011;11322;50.858;-1.778;2023-11-21T03:00:34;1.05;;;0.8;;
22308;SDS011;11322;50.858;-1.778;2023-11-21T03:05:34;14.05;;;1.0;;
22308;SDS011;11322;50.858;-1.778;2023-11-21T03:10:34;5.65;;;0.8;;
22308;SDS011;11322;50.858;-1.778;2023-11-21T03:15:34;0.3;;;0.3;;
22308;SDS011;11322;50.858;-1.778;2023-11-21T03:20:34;0.8;;;0.8;;
22308;SDS011;11322;50.858;-1.778;2023-11-21T03:25:34;1.65;;;0.85;;
22308;SDS011;11322;50.858;-1.778;2023-11-21T03:30:34;0.6;;;0.6;;
22308;SDS011;11322;50.858;-1.778;2023-11-21T03:35:34;7.0;;;0.5;;
22308;SDS011;11322;50.858;-1.778;2023-11-21T03:40:34;0.55;;;0.55;;
22308;SDS011;11322;50.858;-1.778;2023-11-21T03:45:34;0.4;;;0.35;;
22308;SDS011;11322;50.858;-1.778;2023-11-21T03:50:34;1.15;;;1.0;;
22308;SDS011;11322;50.858;-1.778;2023-11-21T03:55:34;0.65;;;0.65;;
22308;SDS011;11322;50.858;-1.778;2023-11-21T04:00:34;2.9;;;0.95;;
22308;SDS011;11322;50.858;-1.778;2023-11-21T04:05:34;3.0;;;1.3;;
22308;SDS011;11322;50.858;-1.778;2023-11-21T04:10:34;1.3;;;1.15;;
22308;SDS011;11322;50.858;-1.778;2023-11-21T04:15:34;2.05;;;1.6;;
22308;SDS011;11322;50.858;-1.778;2023-11-21T04:20:34;5.05;;;1.7;;
22308;SDS011;11322;50.858;-1.778;2023-11-21T04:25:34;3.0;;;2.25;;
22308;SDS011;11322;50.858;-1.778;2023-11-21T04:30:34;3.45;;;1.9;;
22308;SDS011;11322;50.858;-1.778;2023-11-21T04:35:34;9.1;;;2.6;;
22308;SDS011;11322;50.858;-1.778;2023-11-21T04:40:34;6.0;;;2.75;;
22308;SDS011;11322;50.858;-1.778;2023-11-21T04:45:34;3.95;;;2.0;;
22308;SDS011;11322;50.858;-1.778;2023-11-21T04:50:34;4.75;;;2.45;;
22308;SDS011;11322;50.858;-1.778;2023-11-21T04:55:34;3.4;;;1.45;;
22308;SDS011;11322;50.858;-1.778;2023-11-21T05:00:34;2.15;;;1.95;;
22308;SDS011;11322;50.858;-1.778;2023-11-21T05:05:34;5.4;;;2.75;;
22308;SDS011;11322;50.858;-1.778;2023-11-21T05:10:34;4.8;;;2.8;;
22308;SDS011;11322;50.858;-1.778;2023-11-21T05:15:34;5.15;;;2.55;;
22308;SDS011;11322;50.858;-1.778;2023-11-21T05:20:34;5.7;;;3.2;;
22308;SDS011;11322;50.858;-1.778;2023-11-21T05:25:34;2.55;;;1.5;;
22308;SDS011;11322;50.858;-1.778;2023-11-21T05:30:34;7.6;;;4.0;;
22308;SDS011;11322;50.858;-1.778;2023-11-21T05:35:34;9.1;;;3.65;;
22308;SDS011;11322;50.858;-1.778;2023-11-21T05:40:34;4.75;;;3.15;;
22308;SDS011;11322;50.858;-1.778;2023-11-21T05:45:34;6.3;;;3.3;;
22308;SDS011;11322;50.858;-1.778;2023-11-21T05:50:34;3.2;;;2.75;;
22308;SDS011;11322;50.858;-1.778;2023-11-21T05:55:34;9.35;;;3.3;;
22308;SDS011;11322;50.858;-1.778;2023-11-21T06:00:34;10.9;;;3.55;;
22308;SDS011;11322;50.858;-1.778;2023-11-21T06:05:34;4.95;;;3.25;;
22308;SDS011;11322;50.858;-1.778;2023-11-21T06:10:34;4.45;;;3.1;;
22308;SDS011;11322;50.858;-1.778;2023-11-21T06:15:34;2.15;;;1.95;;
22308;SDS011;11322;50.858;-1.778;2023-11-21T06:20:34;6.4;;;3.8;;
22308;SDS011;11322;50.858;-1.778;2023-11-21T06:25:34;6.95;;;3.65;;
22308;SDS011;11322;50.858;-1.778;2023-11-21T06:30:34;12.15;;;4.35;;
22308;SDS011;11322;50.858;-1.778;2023-11-21T06:35:34;9.4;;;4.15;;
22308;SDS011;11322;50.858;-1.778;2023-11-21T06:40:34;6.8;;;3.0;;
22308;SDS011;11322;50.858;-1.778;2023-11-21T06:45:34;1.6;;;1.5;;
22308;SDS011;11322;50.858;-1.778;2023-11-21T06:50:34;2.0;;;1.85;;
22308;SDS011;11322;50.858;-1.778;2023-11-21T06:55:34;6.45;;;2.5;;
22308;SDS011;11322;50.858;-1.778;2023-11-21T07:00:34;4.4;;;2.15;;
22308;SDS011;11322;50.858;-1.778;2023-11-21T07:05:34;5.1;;;2.45;;
22308;SDS011;11322;50.858;-1.778;2023-11-21T07:10:34;3.7;;;1.9;;
22308;SDS011;11322;50.858;-1.778;2023-11-21T07:15:34;3.35;;;2.3;;
22308;SDS011;11322;50.858;-1.778;2023-11-21T07:20:34;3.05;;;2.1;;
22308;SDS011;11322;50.858;-1.778;2023-11-21T07:25:34;2.6;;;1.35;;
22308;SDS011;11322;50.858;-1.778;2023-11-21T07:30:34;1.25;;;1.05;;
22308;SDS011;11322;50.858;-1.778;2023-11-21T07:35:34;4.2;;;1.55;;
22308;SDS011;11322;50.858;-1.778;2023-11-21T07:40:34;1.1;;;0.9;;
22308;SDS011;11322;50.858;-1.778;2023-11-21T07:45:34;0.8;;;0.6;;
22308;SDS011;11322;50.858;-1.778;2023-11-21T07:50:34;2.35;;;0.5;;
22308;SDS011;11322;50.858;-1.778;2023-11-21T07:55:35;1.15;;;0.65;;
22308;SDS011;11322;50.858;-1.778;2023-11-21T08:00:43;0.6;;;0.6;;
22308;SDS011;11322;50.858;-1.778;2023-11-21T08:05:34;3.5;;;1.4;;
22308;SDS011;11322;50.858;-1.778;2023-11-21T08:10:34;1.55;;;0.7;;
22308;SDS011;11322;50.858;-1.778;2023-11-21T08:15:34;0.4;;;0.3;;
22308;SDS011;11322;50.858;-1.778;2023-11-21T08:20:34;1.05;;;0.6;;
22308;SDS011;11322;50.858;-1.778;2023-11-21T08:25:34;1.1;;;0.7;;
22308;SDS011;11322;50.858;-1.778;2023-11-21T08:30:34;1.05;;;0.4;;
22308;SDS011;11322;50.858;-1.778;2023-11-21T08:35:34;1.35;;;0.3;;
22308;SDS011;11322;50.858;-1.778;2023-11-21T08:40:34;2.75;;;1.15;;
22308;SDS011;11322;50.858;-1.778;2023-11-21T08:45:34;2.2;;;0.5;;
22308;SDS011;11322;50.858;-1.778;2023-11-21T08:50:34;2.0;;;0.55;;
22308;SDS011;11322;50.858;-1.778;2023-11-21T08:55:34;0.25;;;0.25;;
22308;SDS011;11322;50.858;-1.778;2023-11-21T09:00:34;0.55;;;0.5;;
22308;SDS011;11322;50.858;-1.778;2023-11-21T09:05:37;0.6;;;0.6;;
22308;SDS011;11322;50.858;-1.778;2023-11-21T09:10:34;0.2;;;0.2;;
22308;SDS011;11322;50.858;-1.778;2023-11-21T09:15:34;1.15;;;0.5;;
22308;SDS011;11322;50.858;-1.778;2023-11-21T09:20:34;2.7;;;1.4;;
22308;SDS011;11322;50.858;-1.778;2023-11-21T09:25:34;1.55;;;0.75;;
22308;SDS011;11322;50.858;-1.778;2023-11-21T09:30:34;2.2;;;1.0;;
22308;SDS011;11322;50.858;-1.778;2023-11-21T09:35:34;1.35;;;0.7;;
22308;SDS011;11322;50.858;-1.778;2023-11-21T09:40:34;0.8;;;0.75;;
22308;SDS011;11322;50.858;-1.778;2023-11-21T09:45:35;0.75;;;0.7;;
22308;SDS011;11322;50.858;-1.778;2023-11-21T09:50:34;8.65;;;1.3;;
22308;SDS011;11322;50.858;-1.778;2023-11-21T09:55:34;0.6;;;0.6;;
22308;SDS011;11322;50.858;-1.778;2023-11-21T10:00:34;1.55;;;1.1;;
22308;SDS011;11322;50.858;-1.778;2023-11-21T10:05:34;0.95;;;0.8;;
22308;SDS011;11322;50.858;-1.778;2023-11-21T10:10:34;0.7;;;0.7;;
22308;SDS011;11322;50.858;-1.778;2023-11-21T10:15:34;2.8;;;0.5;;
22308;SDS011;11322;50.858;-1.778;2023-11-21T10:20:34;2.35;;;1.9;;
22308;SDS011;11322;50.858;-1.778;2023-11-21T10:25:34;0.5;;;0.5;;
22308;SDS011;11322;50.858;-1.778;2023-11-21T10:30:34;0.55;;;0.5;;
22308;SDS011;11322;50.858;-1.778;2023-11-21T10:35:42;1.85;;;1.1;;
22308;SDS011;11322;50.858;-1.778;2023-11-21T10:40:34;0.75;;;0.75;;
22308;SDS011;11322;50.858;-1.778;2023-11-21T10:45:34;1.9;;;1.3;;
22308;SDS011;11322;50.858;-1.778;2023-11-21T10:50:34;0.5;;;0.5;;
22308;SDS011;11322;50.858;-1.778;2023-11-21T10:55:34;1.2;;;0.85;;
22308;SDS011;11322;50.858;-1.778;2023-11-21T11:00:34;0.6;;;0.6;;
22308;SDS011;11322;50.858;-1.778;2023-11-21T11:05:34;3.35;;;1.1;;
22308;SDS011;11322;50.858;-1.778;2023-11-21T11:10:34;1.65;;;0.7;;
22308;SDS011;11322;50.858;-1.778;2023-11-21T11:15:34;2.35;;;0.75;;
22308;SDS011;11322;50.858;-1.778;2023-11-21T11:20:34;0.6;;;0.6;;
22308;SDS011;11322;50.858;-1.778;2023-11-21T11:25:37;9.65;;;1.8;;
22308;SDS011;11322;50.858;-1.778;2023-11-21T11:30:39;2.2;;;1.75;;
22308;SDS011;11322;50.858;-1.778;2023-11-21T11:35:34;1.45;;;1.1;;
22308;SDS011;11322;50.858;-1.778;2023-11-21T11:40:41;0.7;;;0.7;;
22308;SDS011;11322;50.858;-1.778;2023-11-21T11:45:34;3.35;;;1.1;;
22308;SDS011;11322;50.858;-1.778;2023-11-21T11:50:34;1.1;;;1.0;;
22308;SDS011;11322;50.858;-1.778;2023-11-21T11:55:34;0.55;;;0.55;;
22308;SDS011;11322;50.858;-1.778;2023-11-21T12:00:34;1.95;;;1.2;;
22308;SDS011;11322;50.858;-1.778;2023-11-21T12:05:34;1.5;;;1.2;;
22308;SDS011;11322;50.858;-1.778;2023-11-21T12:11:45;2.25;;;1.2;;
22308;SDS011;11322;50.858;-1.778;2023-11-21T12:15:34;1.5;;;1.4;;
22308;SDS011;11322;50.858;-1.778;2023-11-21T12:20:34;2.5;;;1.6;;
22308;SDS011;11322;50.858;-1.778;2023-11-21T12:25:34;2.4;;;1.35;;
22308;SDS011;11322;50.858;-1.778;2023-11-21T12:30:34;3.25;;;1.85;;
22308;SDS011;11322;50.858;-1.778;2023-11-21T12:35:34;2.0;;;1.1;;
22308;SDS011;11322;50.858;-1.778;2023-11-21T12:40:34;3.2;;;1.3;;
22308;SDS011;11322;50.858;-1.778;2023-11-21T12:45:34;1.7;;;0.9;;
22308;SDS011;11322;50.858;-1.778;2023-11-21T12:50:34;2.3;;;1.0;;
22308;SDS011;11322;50.858;-1.778;2023-11-21T12:55:34;1.15;;;1.05;;
22308;SDS011;11322;50.858;-1.778;2023-11-21T13:00:34;1.15;;;0.9;;
22308;SDS011;11322;50.858;-1.778;2023-11-21T13:05:34;3.2;;;1.35;;
22308;SDS011;11322;50.858;-1.778;2023-11-21T13:10:34;5.2;;;1.6;;
22308;SDS011;11322;50.858;-1.778;2023-11-21T13:15:34;1.05;;;0.9;;
22308;SDS011;11322;50.858;-1.778;2023-11-21T13:20:34;2.4;;;1.2;;
22308;SDS011;11322;50.858;-1.778;2023-11-21T13:25:34;0.8;;;0.8;;
22308;SDS011;11322;50.858;-1.778;2023-11-21T13:30:34;1.35;;;0.9;;
22308;SDS011;11322;50.858;-1.778;2023-11-21T13:35:34;2.25;;;1.1;;
22308;SDS011;11322;50.858;-1.778;2023-11-21T13:40:34;0.7;;;0.6;;
22308;SDS011;11322;50.858;-1.778;2023-11-21T13:45:34;1.3;;;1.1;;
22308;SDS011;11322;50.858;-1.778;2023-11-21T13:50:34;3.3;;;1.3;;
22308;SDS011;11322;50.858;-1.778;2023-11-21T13:55:34;1.35;;;1.1;;
22308;SDS011;11322;50.858;-1.778;2023-11-21T14:00:34;1.8;;;1.0;;
22308;SDS011;11322;50.858;-1.778;2023-11-21T14:05:34;1.8;;;0.85;;
22308;SDS011;11322;50.858;-1.778;2023-11-21T14:10:34;1.35;;;1.2;;
22308;SDS011;11322;50.858;-1.778;2023-11-21T14:15:34;1.15;;;0.9;;
22308;SDS011;11322;50.858;-1.778;2023-11-21T14:20:34;1.75;;;1.1;;
22308;SDS011;11322;50.858;-1.778;2023-11-21T14:25:34;1.95;;;1.0;;
22308;SDS011;11322;50.858;-1.778;2023-11-21T14:30:34;2.75;;;1.15;;
22308;SDS011;11322;50.858;-1.778;2023-11-21T14:35:34;1.1;;;0.8;;
22308;SDS011;11322;50.858;-1.778;2023-11-21T14:40:34;1.35;;;0.65;;
22308;SDS011;11322;50.858;-1.778;2023-11-21T14:45:34;1.9;;;0.65;;
22308;SDS011;11322;50.858;-1.778;2023-11-21T14:50:34;1.5;;;0.8;;
22308;SDS011;11322;50.858;-1.778;2023-11-21T14:55:34;2.75;;;0.8;;
22308;SDS011;11322;50.858;-1.778;2023-11-21T15:00:35;0.6;;;0.6;;
22308;SDS011;11322;50.858;-1.778;2023-11-21T15:05:34;0.95;;;0.6;;
22308;SDS011;11322;50.858;-1.778;2023-11-21T15:10:34;0.3;;;0.3;;
22308;SDS011;11322;50.858;-1.778;2023-11-21T15:15:34;1.6;;;0.8;;
22308;SDS011;11322;50.858;-1.778;2023-11-21T15:20:34;1.6;;;1.1;;
22308;SDS011;11322;50.858;-1.778;2023-11-21T15:25:34;4.55;;;1.3;;
22308;SDS011;11322;50.858;-1.778;2023-11-21T15:30:34;0.7;;;0.5;;
22308;SDS011;11322;50.858;-1.778;2023-11-21T15:35:34;3.65;;;1.0;;
22308;SDS011;11322;50.858;-1.778;2023-11-21T15:40:34;2.2;;;0.5;;
22308;SDS011;11322;50.858;-1.778;2023-11-21T15:45:34;2.1;;;0.7;;
22308;SDS011;11322;50.858;-1.778;2023-11-21T15:50:34;6.75;;;1.4;;
22308;SDS011;11322;50.858;-1.778;2023-11-21T15:55:34;1.35;;;1.1;;
22308;SDS011;11322;50.858;-1.778;2023-11-21T16:00:34;1.8;;;1.0;;
22308;SDS011;11322;50.858;-1.778;2023-11-21T16:05:34;0.95;;;0.8;;
22308;SDS011;11322;50.858;-1.778;2023-11-21T16:10:34;1.9;;;1.25;;
22308;SDS011;11322;50.858;-1.778;2023-11-21T16:15:34;3.7;;;1.2;;
22308;SDS011;11322;50.858;-1.778;2023-11-21T16:20:34;1.5;;;1.15;;
22308;SDS011;11322;50.858;-1.778;2023-11-21T16:25:34;10.3;;;1.85;;
22308;SDS011;11322;50.858;-1.778;2023-11-21T16:30:34;1.7;;;1.5;;
22308;SDS011;11322;50.858;-1.778;2023-11-21T16:35:34;14.45;;;7.25;;
22308;SDS011;11322;50.858;-1.778;2023-11-21T16:40:34;1.2;;;0.95;;
22308;SDS011;11322;50.858;-1.778;2023-11-21T16:45:34;2.2;;;1.2;;
22308;SDS011;11322;50.858;-1.778;2023-11-21T16:50:34;16.3;;;7.0;;
22308;SDS011;11322;50.858;-1.778;2023-11-21T16:55:34;19.85;;;10.45;;
22308;SDS011;11322;50.858;-1.778;2023-11-21T17:00:34;5.1;;;2.05;;
22308;SDS011;11322;50.858;-1.778;2023-11-21T17:05:34;12.75;;;6.85;;
22308;SDS011;11322;50.858;-1.778;2023-11-21T17:10:34;24.35;;;10.95;;
22308;SDS011;11322;50.858;-1.778;2023-11-21T17:15:34;5.7;;;3.05;;
22308;SDS011;11322;50.858;-1.778;2023-11-21T17:20:34;2.8;;;1.4;;
22308;SDS011;11322;50.858;-1.778;2023-11-21T17:25:34;2.1;;;1.9;;
22308;SDS011;11322;50.858;-1.778;2023-11-21T17:30:34;3.5;;;1.9;;
22308;SDS011;11322;50.858;-1.778;2023-11-21T17:35:34;2.55;;;1.45;;
22308;SDS011;11322;50.858;-1.778;2023-11-21T17:40:34;4.0;;;1.7;;
22308;SDS011;11322;50.858;-1.778;2023-11-21T17:45:34;3.7;;;1.8;;
22308;SDS011;11322;50.858;-1.778;2023-11-21T17:50:34;5.3;;;1.5;;
22308;SDS011;11322;50.858;-1.778;2023-11-21T17:55:34;1.15;;;1.1;;
22308;SDS011;11322;50.858;-1.778;2023-11-21T18:00:34;6.95;;;2.0;;
22308;SDS011;11322;50.858;-1.778;2023-11-21T18:05:34;8.15;;;3.8;;
22308;SDS011;11322;50.858;-1.778;2023-11-21T18:10:34;7.6;;;2.6;;
22308;SDS011;11322;50.858;-1.778;2023-11-21T18:15:34;7.75;;;3.95;;
22308;SDS011;11322;50.858;-1.778;2023-11-21T18:20:34;16.4;;;7.3;;
22308;SDS011;11322;50.858;-1.778;2023-11-21T18:25:34;8.95;;;2.45;;
22308;SDS011;11322;50.858;-1.778;2023-11-21T18:30:34;8.0;;;3.85;;
22308;SDS011;11322;50.858;-1.778;2023-11-21T18:35:34;14.1;;;5.45;;
22308;SDS011;11322;50.858;-1.778;2023-11-21T18:40:34;17.35;;;7.35;;
22308;SDS011;11322;50.858;-1.778;2023-11-21T18:45:34;9.35;;;2.95;;
22308;SDS011;11322;50.858;-1.778;2023-11-21T18:50:34;4.1;;;1.4;;
22308;SDS011;11322;50.858;-1.778;2023-11-21T18:55:34;2.2;;;1.3;;
22308;SDS011;11322;50.858;-1.778;2023-11-21T19:00:34;1.75;;;1.2;;
22308;SDS011;11322;50.858;-1.778;2023-11-21T19:05:34;6.2;;;2.75;;
22308;SDS011;11322;50.858;-1.778;2023-11-21T19:10:34;2.65;;;1.8;;
22308;SDS011;11322;50.858;-1.778;2023-11-21T19:15:34;5.3;;;2.6;;
22308;SDS011;11322;50.858;-1.778;2023-11-21T19:20:34;17.2;;;6.75;;
22308;SDS011;11322;50.858;-1.778;2023-11-21T19:25:34;22.3;;;8.8;;
22308;SDS011;11322;50.858;-1.778;2023-11-21T19:30:34;11.85;;;2.95;;
22308;SDS011;11322;50.858;-1.778;2023-11-21T19:35:34;2.7;;;1.3;;
22308;SDS011;11322;50.858;-1.778;2023-11-21T19:40:34;3.9;;;1.3;;
22308;SDS011;11322;50.858;-1.778;2023-11-21T19:45:34;6.4;;;2.45;;
22308;SDS011;11322;50.858;-1.778;2023-11-21T19:50:34;3.35;;;1.85;;
22308;SDS011;11322;50.858;-1.778;2023-11-21T19:55:34;1.8;;;1.7;;
22308;SDS011;11322;50.858;-1.778;2023-11-21T20:00:34;1.65;;;1.55;;
22308;SDS011;11322;50.858;-1.778;2023-11-21T20:05:34;4.45;;;1.9;;
22308;SDS011;11322;50.858;-1.778;2023-11-21T20:10:34;8.5;;;3.25;;
22308;SDS011;11322;50.858;-1.778;2023-11-21T20:15:34;1.55;;;1.45;;
22308;SDS011;11322;50.858;-1.778;2023-11-21T20:20:34;6.95;;;3.4;;
22308;SDS011;11322;50.858;-1.778;2023-11-21T20:25:34;7.15;;;2.1;;
22308;SDS011;11322;50.858;-1.778;2023-11-21T20:30:34;5.3;;;1.6;;
22308;SDS011;11322;50.858;-1.778;2023-11-21T20:35:34;1.2;;;1.0;;
22308;SDS011;11322;50.858;-1.778;2023-11-21T20:40:34;5.1;;;1.7;;
22308;SDS011;11322;50.858;-1.778;2023-11-21T20:45:34;1.8;;;1.55;;
22308;SDS011;11322;50.858;-1.778;2023-11-21T20:50:34;2.3;;;1.8;;
22308;SDS011;11322;50.858;-1.778;2023-11-21T20:55:34;7.4;;;2.1;;
22308;SDS011;11322;50.858;-1.778;2023-11-21T21:00:34;2.65;;;1.3;;
22308;SDS011;11322;50.858;-1.778;2023-11-21T21:05:34;1.65;;;1.5;;
22308;SDS011;11322;50.858;-1.778;2023-11-21T21:10:34;1.05;;;0.9;;
22308;SDS011;11322;50.858;-1.778;2023-11-21T21:15:34;0.75;;;0.75;;
22308;SDS011;11322;50.858;-1.778;2023-11-21T21:20:34;8.25;;;1.6;;
22308;SDS011;11322;50.858;-1.778;2023-11-21T21:25:34;1.85;;;1.55;;
22308;SDS011;11322;50.858;-1.778;2023-11-21T21:30:34;2.85;;;1.9;;
22308;SDS011;11322;50.858;-1.778;2023-11-21T21:35:34;1.8;;;1.6;;
22308;SDS011;11322;50.858;-1.778;2023-11-21T21:40:34;1.55;;;1.45;;
22308;SDS011;11322;50.858;-1.778;2023-11-21T21:45:34;6.2;;;1.6;;
22308;SDS011;11322;50.858;-1.778;2023-11-21T21:50:34;4.2;;;1.75;;
22308;SDS011;11322;50.858;-1.778;2023-11-21T21:55:34;3.8;;;1.75;;
22308;SDS011;11322;50.858;-1.778;2023-11-21T22:00:34;1.2;;;1.2;;
22308;SDS011;11322;50.858;-1.778;2023-11-21T22:05:34;1.6;;;0.85;;
22308;SDS011;11322;50.858;-1.778;2023-11-21T22:10:35;1.15;;;1.0;;
22308;SDS011;11322;50.858;-1.778;2023-11-21T22:15:34;1.9;;;1.4;;
22308;SDS011;11322;50.858;-1.778;2023-11-21T22:20:34;4.9;;;1.75;;
22308;SDS011;11322;50.858;-1.778;2023-11-21T22:25:34;12.95;;;6.65;;
22308;SDS011;11322;50.858;-1.778;2023-11-21T22:30:34;30.75;;;12.15;;
22308;SDS011;11322;50.858;-1.778;2023-11-21T22:35:34;13.95;;;7.45;;
22308;SDS011;11322;50.858;-1.778;2023-11-21T22:40:34;7.55;;;6.35;;
22308;SDS011;11322;50.858;-1.778;2023-11-21T22:45:34;13.55;;;6.95;;
22308;SDS011;11322;50.858;-1.778;2023-11-21T22:50:34;28.75;;;12.0;;
22308;SDS011;11322;50.858;-1.778;2023-11-21T22:55:34;11.9;;;2.9;;
22308;SDS011;11322;50.858;-1.778;2023-11-21T23:00:34;7.1;;;2.15;;
22308;SDS011;11322;50.858;-1.778;2023-11-21T23:05:34;1.9;;;1.35;;
22308;SDS011;11322;50.858;-1.778;2023-11-21T23:10:34;1.6;;;1.5;;
22308;SDS011;11322;50.858;-1.778;2023-11-21T23:15:34;1.0;;;0.9;;
22308;SDS011;11322;50.858;-1.778;2023-11-21T23:20:34;3.0;;;1.9;;
22308;SDS011;11322;50.858;-1.778;2023-11-21T23:25:34;3.8;;;2.45;;
22308;SDS011;11322;50.858;-1.778;2023-11-21T23:30:34;1.3;;;1.25;;
22308;SDS011;11322;50.858;-1.778;2023-11-21T23:35:34;2.45;;;1.95;;
22308;SDS011;11322;50.858;-1.778;2023-11-21T23:40:34;12.5;;;4.7;;
22308;SDS011;11322;50.858;-1.778;2023-11-21T23:45:34;5.75;;;4.6;;
22308;SDS011;11322;50.858;-1.778;2023-11-21T23:50:34;14.9;;;4.2;;
22308;SDS011;11322;50.858;-1.778;2023-11-21T23:55:34;5.05;;;2.55;;
